Terminal Aerodrome Forecast
Issued by NWS Twin Cities, MN

Home | Current Version | Previous Version | Text Only | Print | Product List | Glossary Off
Versions: 1 2 3 4 5 6 7 8 9 10 11 12 13 14 15 16 17 18 19 20 21 22 23 24 25 26 27 28 29 30 31 32 33 34 35 36

639
FTUS43 KMPX 241120
TAFMSP
TAF
KMSP 241120Z 2412/2518 16004KT P6SM SCT250
     FM241600 17011G17KT P6SM SCT050 SCT250
     FM250000 16008KT P6SM SCT250
     FM250900 19007KT P6SM VCSH SCT050 BKN100
     FM251300 29005KT P6SM -SHRA BKN025 OVC050=

USA.gov is the U.S. government's official web portal to all federal, state and local government web resources and services.